FAWB/PRY METAR and TAF weather

Enter ICAO airport designator
Station Type Date Time Source
FAWB METAR 2022/11/26 09:00 UTC NOAA

FAWB 260900Z AUTO 02007KT //// // ////// 25/16 Q1020


Station Type Date Time Source
FAWB Decoded METAR 2022/11/26 09:00 UTC NOAA

Wonderboom / Pretoria, South Africa (FAWB) 25-39S 028-13E
Nov 26, 2022 - 04:00 AM EST / 2022.11.26 0900 UTC
Wind: from the NNE (020 degrees) at 8 MPH (7 KT):0
Temperature: 77 F (25 C)
Dew Point: 60 F (16 C)
Relative Humidity: 57%
Pressure (altimeter): 30.12 in. Hg (1020 hPa)
ob: FAWB 260900Z AUTO 02007KT //// // ////// 25/16 Q1020
cycle: 9

Station Type Date Time Source
FAWB TAF 2021/05/05 07:00 UTC NOAA

TAF FAWB 050608Z 0507/0518 VRB03KT CAVOK TX24/0512Z TN15/0518Z

Example: see airport list